Time;durP1;ratioP1;P1;durP2;ratioP2;P2;SDS_P1;SDS_P2;PMS_P1;PMS_P2;Temp;Humidity;BMP_temperature;BMP_pressure;BME280_temperature;BME280_humidity;BME280_pressure;Samples;Min_cycle;Max_cycle;Signal;HPM_P1;HPM_P2
2023/10/24 00:01:32;;;;;;;4.07;2.22;;;;;;;;;;5057519;28;20023;-86
2023/10/24 00:03:58;;;;;;;4.38;2.13;;;;;;;;;;5056801;28;20019;-86
2023/10/24 00:06:23;;;;;;;4.72;2.15;;;;;;;;;;5056142;28;20017;-87
2023/10/24 00:08:48;;;;;;;4.95;2.00;;;;;;;;;;5056995;28;20017;-86
2023/10/24 00:11:14;;;;;;;6.15;2.13;;;;;;;;;;5056264;28;20051;-85
2023/10/24 00:13:39;;;;;;;7.97;1.98;;;;;;;;;;5054434;28;20025;-86
2023/10/24 00:16:04;;;;;;;3.17;1.80;;;;;;;;;;5056081;28;20461;-85
2023/10/24 00:18:30;;;;;;;5.10;2.33;;;;;;;;;;5073059;28;20019;-86
2023/10/24 00:20:55;;;;;;;3.47;2.25;;;;;;;;;;5073498;28;20031;-86
2023/10/24 00:23:23;;;;;;;4.05;2.00;;;;;;;;;;5055930;28;20025;-86
2023/10/24 00:25:48;;;;;;;4.28;2.30;;;;;;;;;;5073488;28;20043;-85
2023/10/24 00:28:14;;;;;;;4.78;2.00;;;;;;;;;;5055559;28;20028;-86
2023/10/24 00:30:39;;;;;;;4.97;1.85;;;;;;;;;;5055335;28;20017;-86
2023/10/24 00:33:05;;;;;;;5.82;2.53;;;;;;;;;;5055228;28;20061;-85
2023/10/24 00:35:30;;;;;;;6.45;2.55;;;;;;;;;;5088664;28;20020;-87
2023/10/24 00:37:55;;;;;;;4.32;2.58;;;;;;;;;;5055194;28;20016;-87
2023/10/24 00:40:21;;;;;;;3.25;2.15;;;;;;;;;;5055284;28;20022;-86
2023/10/24 00:42:46;;;;;;;3.33;2.05;;;;;;;;;;5055439;28;20025;-86
2023/10/24 00:45:11;;;;;;;5.28;2.40;;;;;;;;;;5073131;28;20017;-86
2023/10/24 00:47:43;;;;;;;4.20;2.13;;;;;;;;;;5055088;28;20035;-86
2023/10/24 00:50:08;;;;;;;6.55;2.70;;;;;;;;;;5054972;28;20047;-86
2023/10/24 00:52:34;;;;;;;5.22;2.78;;;;;;;;;;5058006;28;20724;-86
2023/10/24 00:55:00;;;;;;;4.05;2.67;;;;;;;;;;5074075;28;20052;-86
2023/10/24 00:57:28;;;;;;;6.57;2.70;;;;;;;;;;5055479;28;20021;-86
2023/10/24 00:59:54;;;;;;;6.00;2.53;;;;;;;;;;5075901;28;20032;-85
2023/10/24 01:02:19;;;;;;;8.23;2.60;;;;;;;;;;5059247;28;20090;-86
2023/10/24 01:04:50;;;;;;;3.83;2.60;;;;;;;;;;5059956;28;20096;-85
2023/10/24 01:07:16;;;;;;;4.07;2.60;;;;;;;;;;5078434;28;20025;-86
2023/10/24 01:09:41;;;;;;;4.85;2.33;;;;;;;;;;5059756;28;20123;-86
2023/10/24 01:12:07;;;;;;;4.15;2.30;;;;;;;;;;5059709;28;20024;-86
2023/10/24 01:14:32;;;;;;;4.35;2.67;;;;;;;;;;5078989;28;20032;-86
2023/10/24 01:16:58;;;;;;;4.50;3.10;;;;;;;;;;5079708;28;20048;-86
2023/10/24 01:19:24;;;;;;;5.70;2.63;;;;;;;;;;5059638;28;20025;-86
2023/10/24 01:21:50;;;;;;;6.05;3.50;;;;;;;;;;5060441;28;20020;-86
2023/10/24 01:24:16;;;;;;;6.22;3.28;;;;;;;;;;5059868;28;20483;-86
2023/10/24 01:26:44;;;;;;;5.47;3.25;;;;;;;;;;5058678;28;20490;-86
2023/10/24 01:29:10;;;;;;;7.35;3.38;;;;;;;;;;5059112;28;20577;-87
2023/10/24 01:31:36;;;;;;;6.30;3.40;;;;;;;;;;5059564;28;20466;-86
2023/10/24 01:34:01;;;;;;;4.32;2.95;;;;;;;;;;5058417;28;20466;-86
2023/10/24 01:36:27;;;;;;;7.00;3.58;;;;;;;;;;5058445;28;20115;-86
2023/10/24 01:38:52;;;;;;;5.45;3.10;;;;;;;;;;5045011;28;20016;-86
2023/10/24 01:41:17;;;;;;;6.80;3.13;;;;;;;;;;5058793;28;20023;-85
2023/10/24 01:43:45;;;;;;;5.60;3.20;;;;;;;;;;5058754;28;20066;-86
2023/10/24 01:46:10;;;;;;;6.22;3.45;;;;;;;;;;5058403;28;20380;-86
2023/10/24 01:48:38;;;;;;;8.70;4.28;;;;;;;;;;5057141;28;20059;-86
2023/10/24 01:51:06;;;;;;;10.18;3.58;;;;;;;;;;5075878;28;20013;-86
2023/10/24 01:53:36;;;;;;;5.25;3.33;;;;;;;;;;5058039;28;20024;-87
2023/10/24 01:56:02;;;;;;;5.70;3.15;;;;;;;;;;5091622;28;20466;-86
2023/10/24 01:58:33;;;;;;;5.18;3.22;;;;;;;;;;5058043;28;20028;-86
2023/10/24 02:00:59;;;;;;;5.57;2.97;;;;;;;;;;5058427;28;20013;-86
2023/10/24 02:03:24;;;;;;;5.93;2.95;;;;;;;;;;5058300;28;20020;-86
2023/10/24 02:05:50;;;;;;;6.47;3.67;;;;;;;;;;5064970;28;20032;-86
2023/10/24 02:08:15;;;;;;;7.13;3.60;;;;;;;;;;5058393;28;20017;-86
2023/10/24 02:10:40;;;;;;;4.95;3.28;;;;;;;;;;5058210;28;20078;-86
2023/10/24 02:13:06;;;;;;;6.03;3.65;;;;;;;;;;5093718;28;20024;-86
2023/10/24 02:15:31;;;;;;;6.32;3.92;;;;;;;;;;5084810;28;20070;-85
2023/10/24 02:17:57;;;;;;;7.00;4.25;;;;;;;;;;5064006;28;20016;-86
2023/10/24 02:20:22;;;;;;;6.50;3.83;;;;;;;;;;5096544;28;20021;-86
2023/10/24 02:22:51;;;;;;;7.68;4.22;;;;;;;;;;5060412;28;20025;-86
2023/10/24 02:25:18;;;;;;;9.38;3.80;;;;;;;;;;5061773;28;20038;-86
2023/10/24 02:27:44;;;;;;;9.65;3.75;;;;;;;;;;5061077;28;20020;-86
2023/10/24 02:30:09;;;;;;;7.57;4.43;;;;;;;;;;5061338;28;20012;-88
2023/10/24 02:32:35;;;;;;;11.60;4.85;;;;;;;;;;5074487;28;20016;-89
2023/10/24 02:35:02;;;;;;;6.05;3.88;;;;;;;;;;5059090;28;20028;-89
2023/10/24 02:37:28;;;;;;;7.72;4.57;;;;;;;;;;5057553;28;20012;-88
2023/10/24 02:39:53;;;;;;;10.10;4.10;;;;;;;;;;5074388;28;20013;-87
2023/10/24 02:42:18;;;;;;;6.63;4.20;;;;;;;;;;5056826;28;20012;-88
2023/10/24 02:44:47;;;;;;;7.80;3.80;;;;;;;;;;5056956;28;20031;-88
2023/10/24 02:47:13;;;;;;;8.15;3.78;;;;;;;;;;5056234;28;20063;-88
2023/10/24 02:49:38;;;;;;;5.90;3.80;;;;;;;;;;5056661;28;20445;-89
2023/10/24 02:52:05;;;;;;;6.35;3.55;;;;;;;;;;5056647;28;20533;-89
2023/10/24 02:54:31;;;;;;;7.10;3.70;;;;;;;;;;5056582;28;20016;-89
2023/10/24 02:56:56;;;;;;;7.10;4.10;;;;;;;;;;5056627;28;20088;-89
2023/10/24 02:59:22;;;;;;;6.90;3.70;;;;;;;;;;5056472;28;20095;-89
2023/10/24 03:01:47;;;;;;;7.55;3.72;;;;;;;;;;5055768;28;20103;-89
2023/10/24 03:04:12;;;;;;;4.75;3.13;;;;;;;;;;5056201;28;20054;-89
2023/10/24 03:06:37;;;;;;;6.45;3.33;;;;;;;;;;5056291;28;20115;-88
2023/10/24 03:09:03;;;;;;;5.93;2.90;;;;;;;;;;5090016;28;20120;-88
2023/10/24 03:11:28;;;;;;;4.53;2.78;;;;;;;;;;5056367;28;20016;-89
2023/10/24 03:13:56;;;;;;;5.65;3.22;;;;;;;;;;5056015;28;20016;-89
2023/10/24 03:16:24;;;;;;;3.50;2.47;;;;;;;;;;5055918;28;20051;-89
2023/10/24 03:18:49;;;;;;;10.73;2.40;;;;;;;;;;5060266;28;20108;-89
2023/10/24 03:21:15;;;;;;;6.07;2.17;;;;;;;;;;5073282;28;20020;-89
2023/10/24 03:23:40;;;;;;;4.68;2.45;;;;;;;;;;5056234;28;20028;-89
2023/10/24 03:26:06;;;;;;;9.90;2.90;;;;;;;;;;5058121;28;20045;-88
2023/10/24 03:28:35;;;;;;;2.83;1.83;;;;;;;;;;5063128;28;20074;-83
2023/10/24 03:31:02;;;;;;;3.58;1.63;;;;;;;;;;5061146;28;20089;-83
2023/10/24 03:33:32;;;;;;;4.13;1.45;;;;;;;;;;5060535;28;20033;-83
2023/10/24 03:36:01;;;;;;;2.58;1.20;;;;;;;;;;5057448;28;20387;-84
2023/10/24 03:38:27;;;;;;;3.45;1.30;;;;;;;;;;5058952;28;20059;-83
2023/10/24 03:40:53;;;;;;;5.00;1.20;;;;;;;;;;5058799;28;20024;-84
2023/10/24 03:43:18;;;;;;;2.20;1.10;;;;;;;;;;5058584;28;20020;-83
2023/10/24 03:45:43;;;;;;;2.95;1.10;;;;;;;;;;5055546;28;20047;-83
2023/10/24 03:48:09;;;;;;;2.65;1.42;;;;;;;;;;5056571;28;20020;-83
2023/10/24 03:50:38;;;;;;;2.20;1.23;;;;;;;;;;5055356;28;20029;-83
2023/10/24 03:53:07;;;;;;;2.08;1.20;;;;;;;;;;5055032;28;20048;-83
2023/10/24 03:55:35;;;;;;;1.80;1.10;;;;;;;;;;5055990;28;20528;-83
2023/10/24 03:58:00;;;;;;;2.72;1.38;;;;;;;;;;5055696;28;20027;-83
2023/10/24 04:00:26;;;;;;;3.35;1.70;;;;;;;;;;5055191;28;20576;-84
2023/10/24 04:02:54;;;;;;;2.08;1.17;;;;;;;;;;5054221;28;20112;-83
2023/10/24 04:05:20;;;;;;;3.10;1.70;;;;;;;;;;5055157;28;20013;-84
2023/10/24 04:07:48;;;;;;;2.60;1.40;;;;;;;;;;5088482;28;20016;-83
2023/10/24 04:10:14;;;;;;;3.65;1.42;;;;;;;;;;5045744;28;20478;-84
2023/10/24 04:12:40;;;;;;;2.10;1.35;;;;;;;;;;5050165;28;20305;-84
2023/10/24 04:15:05;;;;;;;2.60;1.50;;;;;;;;;;5054815;28;20023;-83
2023/10/24 04:17:34;;;;;;;4.15;2.28;;;;;;;;;;5054004;28;20027;-83
2023/10/24 04:19:59;;;;;;;3.45;1.90;;;;;;;;;;5053175;28;20020;-83
2023/10/24 04:22:27;;;;;;;3.80;2.00;;;;;;;;;;5054010;28;20023;-84
2023/10/24 04:24:53;;;;;;;4.15;2.30;;;;;;;;;;5055132;28;20109;-83
2023/10/24 04:27:24;;;;;;;3.70;2.03;;;;;;;;;;5054749;28;20479;-83
2023/10/24 04:29:50;;;;;;;5.15;2.50;;;;;;;;;;5054388;28;20431;-83
2023/10/24 04:32:15;;;;;;;6.07;2.17;;;;;;;;;;5055622;28;20024;-83
2023/10/24 04:34:40;;;;;;;17.30;2.25;;;;;;;;;;5053713;28;20533;-83
2023/10/24 04:37:06;;;;;;;4.10;2.08;;;;;;;;;;5053982;28;20747;-83
2023/10/24 04:39:32;;;;;;;5.35;2.63;;;;;;;;;;5056274;28;20024;-83
2023/10/24 04:41:58;;;;;;;5.10;2.30;;;;;;;;;;5062649;28;20025;-83
2023/10/24 04:44:26;;;;;;;5.85;2.53;;;;;;;;;;5077520;28;20020;-83
2023/10/24 04:46:52;;;;;;;4.03;1.95;;;;;;;;;;5057821;28;20051;-83
2023/10/24 04:49:17;;;;;;;4.80;2.28;;;;;;;;;;5055865;28;20028;-84
2023/10/24 04:51:43;;;;;;;4.13;2.42;;;;;;;;;;5073800;28;20024;-83
2023/10/24 04:54:08;;;;;;;4.78;2.60;;;;;;;;;;5042018;28;20099;-83
2023/10/24 04:56:34;;;;;;;6.82;3.08;;;;;;;;;;5055644;28;20078;-84
2023/10/24 04:58:59;;;;;;;6.20;3.15;;;;;;;;;;5054273;28;20016;-83
2023/10/24 05:01:24;;;;;;;4.30;2.80;;;;;;;;;;5056731;28;20016;-83
2023/10/24 05:03:50;;;;;;;8.18;2.58;;;;;;;;;;5053974;28;20020;-82
2023/10/24 05:06:15;;;;;;;6.10;2.30;;;;;;;;;;5054408;28;20529;-83
2023/10/24 05:08:41;;;;;;;5.65;3.00;;;;;;;;;;5054220;28;20016;-82
2023/10/24 05:11:07;;;;;;;4.85;2.67;;;;;;;;;;5053600;28;20036;-83
2023/10/24 05:13:33;;;;;;;6.10;2.60;;;;;;;;;;5065206;28;20150;-83
2023/10/24 05:15:58;;;;;;;5.93;2.90;;;;;;;;;;5053692;28;20052;-83
2023/10/24 05:18:24;;;;;;;4.57;2.67;;;;;;;;;;5071825;28;20008;-83
2023/10/24 05:20:49;;;;;;;7.80;2.88;;;;;;;;;;5054084;28;20052;-83
2023/10/24 05:23:15;;;;;;;6.60;3.00;;;;;;;;;;5071392;28;20201;-84
2023/10/24 05:25:43;;;;;;;8.13;3.00;;;;;;;;;;5054020;28;20024;-83
2023/10/24 05:28:11;;;;;;;6.97;2.78;;;;;;;;;;5052889;28;20472;-84
2023/10/24 05:30:38;;;;;;;6.40;2.97;;;;;;;;;;5053595;28;20021;-84
2023/10/24 05:33:04;;;;;;;5.30;2.75;;;;;;;;;;5053386;28;20020;-84
2023/10/24 05:35:29;;;;;;;5.35;2.67;;;;;;;;;;5050670;28;20040;-83
2023/10/24 05:37:55;;;;;;;7.38;3.17;;;;;;;;;;5060810;28;20468;-84
2023/10/24 05:40:21;;;;;;;5.13;3.20;;;;;;;;;;5053336;28;20413;-84
2023/10/24 05:42:49;;;;;;;7.95;3.60;;;;;;;;;;5072160;28;20015;-83
2023/10/24 05:45:14;;;;;;;6.03;3.42;;;;;;;;;;5058247;28;20035;-84
2023/10/24 05:47:43;;;;;;;6.75;3.70;;;;;;;;;;5057232;28;20029;-84
2023/10/24 05:50:11;;;;;;;8.57;4.18;;;;;;;;;;5057867;28;20051;-83
2023/10/24 05:52:37;;;;;;;9.00;4.13;;;;;;;;;;5059158;28;20021;-83
2023/10/24 05:55:03;;;;;;;10.55;4.65;;;;;;;;;;5064144;28;20105;-83
2023/10/24 05:57:28;;;;;;;11.75;4.32;;;;;;;;;;5060836;28;20017;-83
2023/10/24 05:59:54;;;;;;;9.10;4.53;;;;;;;;;;5060287;28;20464;-84
2023/10/24 06:02:20;;;;;;;10.20;4.97;;;;;;;;;;5059194;28;20433;-83
2023/10/24 06:04:45;;;;;;;8.30;4.70;;;;;;;;;;5058495;28;20150;-83
2023/10/24 06:07:11;;;;;;;9.20;4.80;;;;;;;;;;5060862;28;20024;-83
2023/10/24 06:09:39;;;;;;;12.80;4.88;;;;;;;;;;5057953;28;20025;-83
2023/10/24 06:12:04;;;;;;;7.88;4.82;;;;;;;;;;5076308;28;20431;-83
2023/10/24 06:14:32;;;;;;;7.30;4.30;;;;;;;;;;5061531;28;20077;-83
2023/10/24 06:17:00;;;;;;;7.00;4.10;;;;;;;;;;5055562;28;20029;-83
2023/10/24 06:19:25;;;;;;;10.93;4.82;;;;;;;;;;5055627;28;20230;-83
2023/10/24 06:21:51;;;;;;;7.40;4.10;;;;;;;;;;5086110;28;20040;-83
2023/10/24 06:24:16;;;;;;;8.02;4.00;;;;;;;;;;5062624;28;20048;-83
2023/10/24 06:26:41;;;;;;;11.30;4.72;;;;;;;;;;5057013;28;20405;-83
2023/10/24 06:29:07;;;;;;;6.78;3.75;;;;;;;;;;5055196;28;20081;-83
2023/10/24 06:31:34;;;;;;;9.52;4.15;;;;;;;;;;5086389;28;20020;-83
2023/10/24 06:34:02;;;;;;;11.00;4.40;;;;;;;;;;5054723;28;20025;-83
2023/10/24 06:36:30;;;;;;;8.05;4.38;;;;;;;;;;5056005;28;20378;-84
2023/10/24 06:38:55;;;;;;;10.52;3.88;;;;;;;;;;5055474;28;20036;-83
2023/10/24 06:41:20;;;;;;;8.13;3.95;;;;;;;;;;5055094;28;20052;-83
2023/10/24 06:43:46;;;;;;;8.95;3.83;;;;;;;;;;5055277;28;20033;-82
2023/10/24 06:46:12;;;;;;;5.88;3.70;;;;;;;;;;5055596;28;20027;-83
2023/10/24 06:48:37;;;;;;;8.88;3.67;;;;;;;;;;5055228;28;20040;-82
2023/10/24 06:51:06;;;;;;;7.82;3.83;;;;;;;;;;5055476;28;20388;-83
2023/10/24 06:53:31;;;;;;;8.82;3.10;;;;;;;;;;5051412;28;20367;-83
2023/10/24 06:56:00;;;;;;;7.82;3.50;;;;;;;;;;5056980;28;20158;-83
2023/10/24 06:58:26;;;;;;;8.27;3.42;;;;;;;;;;5056573;28;20012;-83
2023/10/24 07:00:51;;;;;;;9.60;3.25;;;;;;;;;;5055796;28;20103;-83
2023/10/24 07:03:17;;;;;;;7.25;3.45;;;;;;;;;;5054942;28;20480;-83
2023/10/24 07:05:48;;;;;;;5.75;2.85;;;;;;;;;;5064018;28;20028;-83
2023/10/24 07:08:17;;;;;;;4.53;2.95;;;;;;;;;;5063949;28;20021;-82
2023/10/24 07:10:43;;;;;;;8.52;2.88;;;;;;;;;;5078197;28;20032;-81
2023/10/24 07:13:11;;;;;;;8.18;3.47;;;;;;;;;;5060626;28;20069;-80
2023/10/24 07:15:36;;;;;;;12.70;3.25;;;;;;;;;;5057541;28;20383;-80
2023/10/24 07:18:03;;;;;;;5.00;2.60;;;;;;;;;;5057096;28;20012;-81
2023/10/24 07:20:29;;;;;;;4.70;2.47;;;;;;;;;;5063344;28;20027;-83
2023/10/24 07:22:55;;;;;;;6.10;2.40;;;;;;;;;;5056256;28;20395;-83
2023/10/24 07:25:20;;;;;;;8.18;2.35;;;;;;;;;;5058175;28;20044;-83
2023/10/24 07:27:46;;;;;;;6.00;2.45;;;;;;;;;;5076759;28;20017;-84
2023/10/24 07:30:11;;;;;;;3.70;2.20;;;;;;;;;;5050987;28;20029;-83
2023/10/24 07:32:37;;;;;;;8.35;2.50;;;;;;;;;;5054602;28;20028;-84
2023/10/24 07:35:03;;;;;;;3.60;2.13;;;;;;;;;;5055144;28;20073;-84
2023/10/24 07:37:29;;;;;;;10.10;2.63;;;;;;;;;;5055359;28;20020;-84
2023/10/24 07:39:54;;;;;;;6.82;2.33;;;;;;;;;;5055090;28;20100;-84
2023/10/24 07:42:19;;;;;;;3.80;2.17;;;;;;;;;;5054916;28;20086;-83
2023/10/24 07:44:48;;;;;;;8.95;2.92;;;;;;;;;;5055182;28;20020;-83
2023/10/24 07:47:13;;;;;;;9.07;3.05;;;;;;;;;;5053408;28;20396;-83
2023/10/24 07:49:38;;;;;;;5.47;3.40;;;;;;;;;;5055549;28;20037;-84
2023/10/24 07:52:07;;;;;;;5.15;3.42;;;;;;;;;;5055055;28;20021;-84
2023/10/24 07:54:32;;;;;;;15.95;3.30;;;;;;;;;;5065286;28;20024;-84
2023/10/24 07:56:59;;;;;;;8.23;3.90;;;;;;;;;;5053006;28;20028;-84
2023/10/24 07:59:24;;;;;;;13.57;4.45;;;;;;;;;;5054117;28;20082;-83
2023/10/24 08:01:50;;;;;;;10.25;3.97;;;;;;;;;;5050991;28;20025;-83
2023/10/24 08:04:15;;;;;;;8.90;4.57;;;;;;;;;;5049126;28;20029;-83
2023/10/24 08:06:43;;;;;;;7.40;4.30;;;;;;;;;;5042812;28;20023;-83
2023/10/24 08:09:09;;;;;;;8.90;4.50;;;;;;;;;;5037384;28;20051;-90
2023/10/24 08:11:36;;;;;;;9.50;4.38;;;;;;;;;;5079743;28;20445;-89
2023/10/24 08:14:02;;;;;;;10.50;4.40;;;;;;;;;;5055256;28;20025;-89
2023/10/24 08:16:27;;;;;;;9.30;4.45;;;;;;;;;;5055045;28;20039;-89
2023/10/24 08:18:57;;;;;;;12.02;4.85;;;;;;;;;;5054978;28;20017;-89
2023/10/24 08:21:23;;;;;;;12.45;4.30;;;;;;;;;;5059846;28;20024;-89
2023/10/24 08:23:48;;;;;;;10.05;4.60;;;;;;;;;;5057703;28;20017;-89
2023/10/24 08:26:15;;;;;;;8.18;4.40;;;;;;;;;;5060977;28;20439;-80
2023/10/24 08:28:41;;;;;;;11.32;4.90;;;;;;;;;;5050840;28;20081;-81
2023/10/24 08:31:09;;;;;;;13.10;5.03;;;;;;;;;;5056853;28;20394;-80
2023/10/24 08:33:36;;;;;;;8.35;4.57;;;;;;;;;;5054321;28;20791;-79
2023/10/24 08:36:02;;;;;;;8.60;4.68;;;;;;;;;;5055553;28;20024;-80
2023/10/24 08:38:30;;;;;;;13.27;4.20;;;;;;;;;;5053755;28;20029;-81
2023/10/24 08:40:55;;;;;;;8.20;4.10;;;;;;;;;;5056373;28;20036;-80
2023/10/24 08:43:22;;;;;;;10.35;4.03;;;;;;;;;;5053323;28;20021;-80
2023/10/24 08:45:54;;;;;;;7.78;3.78;;;;;;;;;;5053172;28;20028;-80
2023/10/24 08:48:19;;;;;;;10.25;4.13;;;;;;;;;;5053782;28;20365;-80
2023/10/24 08:50:45;;;;;;;8.20;3.65;;;;;;;;;;5053379;28;20088;-81
2023/10/24 08:53:16;;;;;;;7.25;3.95;;;;;;;;;;5052502;28;20106;-81
2023/10/24 08:55:54;;;;;;;8.45;4.22;;;;;;;;;;5053464;28;20020;-79
2023/10/24 08:58:20;;;;;;;11.90;4.13;;;;;;;;;;5070052;28;20017;-80
2023/10/24 09:00:46;;;;;;;6.68;3.78;;;;;;;;;;5052974;28;20024;-81
2023/10/24 09:03:15;;;;;;;8.50;3.80;;;;;;;;;;5053146;28;20500;-81
2023/10/24 09:05:43;;;;;;;9.90;3.90;;;;;;;;;;5053089;28;20455;-81
2023/10/24 09:08:09;;;;;;;8.55;4.22;;;;;;;;;;5053416;28;20400;-81
2023/10/24 09:10:34;;;;;;;7.35;4.10;;;;;;;;;;5053109;28;20058;-80
2023/10/24 09:12:59;;;;;;;6.32;3.78;;;;;;;;;;5052705;28;20069;-80
2023/10/24 09:15:25;;;;;;;6.60;3.83;;;;;;;;;;5053040;28;20016;-80
2023/10/24 09:17:52;;;;;;;6.50;3.60;;;;;;;;;;5051859;28;20017;-80
2023/10/24 09:20:18;;;;;;;8.07;3.92;;;;;;;;;;5050772;28;20024;-81
2023/10/24 09:22:44;;;;;;;13.13;4.10;;;;;;;;;;5056785;28;20596;-81
2023/10/24 09:25:14;;;;;;;7.55;3.70;;;;;;;;;;5061137;28;20449;-80
2023/10/24 09:27:39;;;;;;;8.02;3.85;;;;;;;;;;5056789;28;20391;-80
2023/10/24 09:30:10;;;;;;;5.68;3.40;;;;;;;;;;5057131;28;20081;-81
2023/10/24 09:32:38;;;;;;;6.65;3.72;;;;;;;;;;5059675;28;20028;-80
2023/10/24 09:35:04;;;;;;;8.15;3.65;;;;;;;;;;5064210;28;20028;-80
2023/10/24 09:37:29;;;;;;;7.75;3.53;;;;;;;;;;5060741;28;20024;-81
2023/10/24 09:39:55;;;;;;;9.02;3.97;;;;;;;;;;5080118;28;20024;-80
2023/10/24 09:42:30;;;;;;;6.68;3.60;;;;;;;;;;5091236;28;20183;-81
2023/10/24 09:44:57;;;;;;;7.53;3.60;;;;;;;;;;5057278;28;20024;-79
2023/10/24 09:47:23;;;;;;;6.35;3.78;;;;;;;;;;5056366;28;20028;-80
2023/10/24 09:49:52;;;;;;;6.90;3.92;;;;;;;;;;5056874;28;20032;-79
2023/10/24 09:52:22;;;;;;;9.13;3.55;;;;;;;;;;5090625;28;20492;-80
2023/10/24 09:54:49;;;;;;;6.32;3.33;;;;;;;;;;5058480;28;20099;-80
2023/10/24 09:57:20;;;;;;;9.90;3.42;;;;;;;;;;5056178;28;20043;-80
2023/10/24 09:59:52;;;;;;;8.30;3.10;;;;;;;;;;5055849;28;20032;-80
2023/10/24 10:02:21;;;;;;;7.35;3.95;;;;;;;;;;5056103;28;20409;-80
2023/10/24 10:04:48;;;;;;;6.88;3.75;;;;;;;;;;5056590;28;20029;-80
2023/10/24 10:07:14;;;;;;;7.20;3.00;;;;;;;;;;5056106;28;20051;-80
2023/10/24 10:09:41;;;;;;;8.05;3.30;;;;;;;;;;5049063;28;20480;-79
2023/10/24 10:12:07;;;;;;;6.65;3.20;;;;;;;;;;5051388;28;20096;-79
2023/10/24 10:14:53;;;;;;;7.40;3.00;;;;;;;;;;5056640;28;20058;-78
2023/10/24 10:17:25;;;;;;;7.10;3.05;;;;;;;;;;5054922;28;20052;-79
2023/10/24 10:20:00;;;;;;;6.28;2.92;;;;;;;;;;5055509;28;20476;-79
2023/10/24 10:22:28;;;;;;;6.07;2.92;;;;;;;;;;5052346;28;20124;-79
2023/10/24 10:24:56;;;;;;;5.72;3.15;;;;;;;;;;5066156;28;20388;-78
2023/10/24 10:27:21;;;;;;;5.05;2.67;;;;;;;;;;5079062;28;20078;-80
2023/10/24 10:29:53;;;;;;;6.45;2.75;;;;;;;;;;5055585;28;20024;-81
2023/10/24 10:32:18;;;;;;;3.65;2.20;;;;;;;;;;5072196;28;20032;-79
2023/10/24 10:34:44;;;;;;;6.35;1.88;;;;;;;;;;5088849;28;20082;-79
2023/10/24 10:37:09;;;;;;;3.72;1.55;;;;;;;;;;5056308;28;20066;-80
2023/10/24 10:39:35;;;;;;;4.55;1.90;;;;;;;;;;5063459;28;20023;-79
2023/10/24 10:42:00;;;;;;;2.75;1.50;;;;;;;;;;5055381;28;20417;-80
2023/10/24 10:44:36;;;;;;;4.78;1.73;;;;;;;;;;5050755;28;20013;-79
2023/10/24 10:47:03;;;;;;;3.05;1.48;;;;;;;;;;5049440;28;20475;-80
2023/10/24 10:49:41;;;;;;;2.53;1.50;;;;;;;;;;5057710;28;20395;-79
2023/10/24 10:52:08;;;;;;;4.57;1.60;;;;;;;;;;5059128;28;20847;-79
2023/10/24 10:54:43;;;;;;;3.40;1.25;;;;;;;;;;5058102;28;20025;-80
2023/10/24 10:57:10;;;;;;;4.60;1.80;;;;;;;;;;5058268;28;20019;-79
2023/10/24 10:59:36;;;;;;;3.10;1.10;;;;;;;;;;5077167;28;20033;-79
2023/10/24 11:02:13;;;;;;;1.85;1.20;;;;;;;;;;5092706;28;20387;-79
2023/10/24 11:04:41;;;;;;;3.25;1.40;;;;;;;;;;5075107;28;20031;-79
2023/10/24 11:07:06;;;;;;;3.17;1.15;;;;;;;;;;5073250;28;20043;-79
2023/10/24 11:09:42;;;;;;;2.63;1.42;;;;;;;;;;5058569;28;20024;-80
2023/10/24 11:12:26;;;;;;;4.28;1.48;;;;;;;;;;5054586;28;20166;-80
2023/10/24 11:15:06;;;;;;;5.28;1.13;;;;;;;;;;5050522;28;20024;-79
2023/10/24 11:17:32;;;;;;;1.58;0.82;;;;;;;;;;5073172;28;20057;-80
2023/10/24 11:19:58;;;;;;;3.05;1.05;;;;;;;;;;5072476;28;20027;-83
2023/10/24 11:22:23;;;;;;;2.63;0.90;;;;;;;;;;5054390;28;20137;-80
2023/10/24 11:24:49;;;;;;;1.45;0.70;;;;;;;;;;5072396;28;20063;-80
2023/10/24 11:27:14;;;;;;;1.70;0.80;;;;;;;;;;5054685;28;20028;-79
2023/10/24 11:29:39;;;;;;;1.17;0.80;;;;;;;;;;5054568;28;20025;-81
2023/10/24 11:32:08;;;;;;;1.40;0.90;;;;;;;;;;5052454;28;20139;-80
2023/10/24 11:34:34;;;;;;;2.67;1.10;;;;;;;;;;5053888;28;20053;-80
2023/10/24 11:36:59;;;;;;;2.33;1.30;;;;;;;;;;5052973;28;20020;-80
2023/10/24 11:39:24;;;;;;;2.80;1.00;;;;;;;;;;5052998;28;20021;-79
2023/10/24 11:41:50;;;;;;;1.73;1.10;;;;;;;;;;5053441;28;20024;-79
2023/10/24 11:44:17;;;;;;;1.55;0.90;;;;;;;;;;5053778;28;20020;-81
2023/10/24 11:46:43;;;;;;;1.73;0.80;;;;;;;;;;5054167;28;20372;-80
2023/10/24 11:49:12;;;;;;;2.28;0.90;;;;;;;;;;5085592;28;20135;-80
2023/10/24 11:51:37;;;;;;;2.35;0.80;;;;;;;;;;5088423;28;20098;-80
2023/10/24 11:54:03;;;;;;;1.52;0.80;;;;;;;;;;5053913;28;20139;-81
2023/10/24 11:56:32;;;;;;;6.88;0.90;;;;;;;;;;5071646;28;20016;-81
2023/10/24 11:58:58;;;;;;;2.25;0.95;;;;;;;;;;5072452;28;20043;-80
2023/10/24 12:01:24;;;;;;;4.30;0.90;;;;;;;;;;5056416;28;20012;-80
2023/10/24 12:03:56;;;;;;;2.67;0.90;;;;;;;;;;5058758;28;20027;-80
2023/10/24 12:06:24;;;;;;;1.20;0.70;;;;;;;;;;5058452;28;20020;-80
2023/10/24 12:08:50;;;;;;;1.88;0.90;;;;;;;;;;5059656;28;20047;-80
2023/10/24 12:11:18;;;;;;;1.95;0.80;;;;;;;;;;5074358;28;20028;-81
2023/10/24 12:13:46;;;;;;;7.20;0.77;;;;;;;;;;5055340;28;20036;-80
2023/10/24 12:16:12;;;;;;;1.65;0.70;;;;;;;;;;5052251;28;20020;-80
2023/10/24 12:18:40;;;;;;;0.90;0.50;;;;;;;;;;5064249;28;20021;-80
2023/10/24 12:21:09;;;;;;;1.05;0.50;;;;;;;;;;5053671;28;20059;-80
2023/10/24 12:23:38;;;;;;;0.77;0.52;;;;;;;;;;5054373;28;20067;-80
2023/10/24 12:26:06;;;;;;;1.13;0.60;;;;;;;;;;5049378;28;20021;-81
2023/10/24 12:28:36;;;;;;;0.80;0.65;;;;;;;;;;5071223;28;20047;-81
2023/10/24 12:31:01;;;;;;;1.17;0.68;;;;;;;;;;5071638;28;20092;-81
2023/10/24 12:33:28;;;;;;;0.77;0.55;;;;;;;;;;5053119;28;20107;-81
2023/10/24 12:35:55;;;;;;;0.60;0.40;;;;;;;;;;5052572;28;20031;-81
2023/10/24 12:38:21;;;;;;;1.10;0.70;;;;;;;;;;5053006;28;20361;-81
2023/10/24 12:40:47;;;;;;;1.67;0.70;;;;;;;;;;5053616;28;20017;-80
2023/10/24 12:43:12;;;;;;;1.85;0.70;;;;;;;;;;5053275;28;20365;-81
2023/10/24 12:45:37;;;;;;;2.70;0.85;;;;;;;;;;5053753;28;20049;-81
2023/10/24 12:48:07;;;;;;;1.25;0.68;;;;;;;;;;5053115;28;20025;-81
2023/10/24 12:50:33;;;;;;;1.55;0.80;;;;;;;;;;5053389;28;20491;-81
2023/10/24 12:52:58;;;;;;;0.90;0.50;;;;;;;;;;5053066;28;20103;-81
2023/10/24 12:55:24;;;;;;;1.48;0.52;;;;;;;;;;5069605;28;20016;-81
2023/10/24 12:57:49;;;;;;;2.53;0.93;;;;;;;;;;5053384;28;20023;-81
2023/10/24 13:00:14;;;;;;;1.23;0.70;;;;;;;;;;5053223;28;20297;-81
2023/10/24 13:02:40;;;;;;;1.20;0.73;;;;;;;;;;5052973;28;20013;-81
2023/10/24 13:05:06;;;;;;;1.10;0.70;;;;;;;;;;5052539;28;20203;-81
2023/10/24 13:07:31;;;;;;;1.15;0.80;;;;;;;;;;5056085;28;20055;-81
2023/10/24 13:09:56;;;;;;;5.45;0.77;;;;;;;;;;5040206;28;20377;-80
2023/10/24 13:12:22;;;;;;;1.00;0.70;;;;;;;;;;5053610;28;20032;-81
2023/10/24 13:14:47;;;;;;;1.10;0.80;;;;;;;;;;5053349;28;20021;-81
2023/10/24 13:17:13;;;;;;;1.00;0.70;;;;;;;;;;5053150;28;20044;-81
2023/10/24 13:19:38;;;;;;;1.10;0.80;;;;;;;;;;5052835;28;20054;-81
2023/10/24 13:22:04;;;;;;;1.15;0.80;;;;;;;;;;5054641;28;20025;-81
2023/10/24 13:24:30;;;;;;;2.17;0.50;;;;;;;;;;5088524;28;20020;-81
2023/10/24 13:26:55;;;;;;;1.80;0.88;;;;;;;;;;5053355;28;20353;-81
2023/10/24 13:29:21;;;;;;;1.30;0.80;;;;;;;;;;5073363;28;20044;-80
2023/10/24 13:31:48;;;;;;;1.10;0.70;;;;;;;;;;5074094;28;20044;-81
2023/10/24 13:34:13;;;;;;;0.82;0.60;;;;;;;;;;5055836;28;20731;-80
2023/10/24 13:36:43;;;;;;;3.20;0.88;;;;;;;;;;5054070;28;20052;-81
2023/10/24 13:39:10;;;;;;;4.40;0.90;;;;;;;;;;5047437;28;20018;-82
2023/10/24 13:41:36;;;;;;;1.17;0.80;;;;;;;;;;5053160;28;20016;-81
2023/10/24 13:44:03;;;;;;;7.57;0.80;;;;;;;;;;5070903;28;20104;-80
2023/10/24 13:46:29;;;;;;;1.27;0.90;;;;;;;;;;5086797;28;20040;-81
2023/10/24 13:48:57;;;;;;;4.10;0.98;;;;;;;;;;5053587;28;20059;-80
2023/10/24 13:51:22;;;;;;;3.08;0.93;;;;;;;;;;5053156;28;20032;-80
2023/10/24 13:53:48;;;;;;;3.83;0.88;;;;;;;;;;5086526;28;20028;-81
2023/10/24 13:56:13;;;;;;;4.13;0.98;;;;;;;;;;5052840;28;20024;-80
2023/10/24 13:58:39;;;;;;;5.00;0.98;;;;;;;;;;5052729;28;20021;-81
2023/10/24 14:01:04;;;;;;;2.30;1.00;;;;;;;;;;5052846;28;20024;-81
2023/10/24 14:03:29;;;;;;;2.38;0.80;;;;;;;;;;5052754;28;20021;-81
2023/10/24 14:05:57;;;;;;;4.60;0.90;;;;;;;;;;5054081;28;20470;-81
2023/10/24 14:08:22;;;;;;;3.78;1.00;;;;;;;;;;5055797;28;20411;-81
2023/10/24 14:10:48;;;;;;;6.30;0.80;;;;;;;;;;5074408;28;20048;-81
2023/10/24 14:13:13;;;;;;;1.48;1.00;;;;;;;;;;5056272;28;20031;-81
2023/10/24 14:15:39;;;;;;;5.47;1.30;;;;;;;;;;5090092;28;20021;-81
2023/10/24 14:18:07;;;;;;;1.50;0.90;;;;;;;;;;5056638;28;20077;-81
2023/10/24 14:20:35;;;;;;;5.88;0.82;;;;;;;;;;5085948;28;20127;-81
2023/10/24 14:23:00;;;;;;;3.60;1.00;;;;;;;;;;5059347;28;20101;-81
2023/10/24 14:25:27;;;;;;;5.35;1.35;;;;;;;;;;5060190;28;20013;-81
2023/10/24 14:27:53;;;;;;;3.85;0.93;;;;;;;;;;5074398;28;20089;-81
2023/10/24 14:30:19;;;;;;;2.10;1.08;;;;;;;;;;5057107;28;20025;-80
2023/10/24 14:32:51;;;;;;;2.65;1.00;;;;;;;;;;5060736;28;20069;-81
2023/10/24 14:35:19;;;;;;;2.83;1.20;;;;;;;;;;5062355;28;20024;-81
2023/10/24 14:37:44;;;;;;;3.50;1.48;;;;;;;;;;5078662;28;20028;-81
2023/10/24 14:40:10;;;;;;;3.15;1.70;;;;;;;;;;5060535;28;20032;-81